createdAt,value
2018-07-16T00:00:49.190Z,60.14
2018-07-16T00:03:16.802Z,60.37
2018-07-16T00:05:44.462Z,60.39
2018-07-16T00:08:12.160Z,60.45
2018-07-16T00:10:39.837Z,60.36
2018-07-16T00:13:07.471Z,59.86
2018-07-16T00:15:35.141Z,59.92
2018-07-16T00:18:02.793Z,60.02
2018-07-16T00:20:30.443Z,60.48
2018-07-16T00:22:58.052Z,60.56
2018-07-16T00:25:25.695Z,60.31
2018-07-16T00:27:53.375Z,59.72
2018-07-16T00:30:21.073Z,59.99
2018-07-16T00:32:48.842Z,60.11
2018-07-16T00:35:16.511Z,60.92
2018-07-16T00:37:44.235Z,61.96
2018-07-16T00:40:11.903Z,62.75
2018-07-16T00:42:39.514Z,62.95
2018-07-16T00:45:07.152Z,63.88
2018-07-16T00:47:34.960Z,63.38
2018-07-16T00:50:02.684Z,63.84
2018-07-16T00:52:30.410Z,64.01
2018-07-16T00:54:58.110Z,63.79
2018-07-16T00:57:25.771Z,64.11
2018-07-16T00:59:53.516Z,63.44
2018-07-16T01:02:21.156Z,63.67
2018-07-16T01:04:48.813Z,64.13
2018-07-16T01:07:16.557Z,64.46
2018-07-16T01:09:44.473Z,64.35
2018-07-16T01:12:12.127Z,64.08
2018-07-16T01:14:39.875Z,63.86
2018-07-16T01:17:07.604Z,64.54
2018-07-16T01:19:35.225Z,64.70
2018-07-16T01:22:03.120Z,64.25
2018-07-16T01:24:30.821Z,64.67
2018-07-16T01:26:58.556Z,64.28
2018-07-16T01:29:26.214Z,64.96
2018-07-16T01:31:53.932Z,65.81
2018-07-16T01:34:21.690Z,65.70
2018-07-16T01:36:49.415Z,65.74
2018-07-16T01:39:17.106Z,66.01
2018-07-16T01:41:45.318Z,66.04
2018-07-16T01:44:13.014Z,66.54
2018-07-16T01:46:40.915Z,66.39
2018-07-16T01:49:08.738Z,66.73
2018-07-16T01:51:36.424Z,66.04
2018-07-16T01:54:04.125Z,66.71
2018-07-16T01:56:31.778Z,66.39
2018-07-16T01:58:59.450Z,66.37
2018-07-16T02:01:27.172Z,66.41
2018-07-16T02:03:54.869Z,65.85
2018-07-16T02:06:22.654Z,66.33
2018-07-16T02:08:50.339Z,65.60
2018-07-16T02:11:17.974Z,65.52
2018-07-16T02:13:45.645Z,65.14
2018-07-16T02:16:13.334Z,65.72
2018-07-16T02:18:41.003Z,65.74
2018-07-16T02:21:08.748Z,65.95
2018-07-16T02:23:36.523Z,65.93
2018-07-16T02:26:04.211Z,65.77
2018-07-16T02:28:31.896Z,66.15
2018-07-16T02:30:59.634Z,65.17
2018-07-16T02:33:27.416Z,65.29
2018-07-16T02:35:55.166Z,65.61
2018-07-16T02:38:22.843Z,65.28
2018-07-16T02:40:50.543Z,65.18
2018-07-16T02:43:18.169Z,64.25
2018-07-16T02:45:45.858Z,64.99
2018-07-16T02:48:13.489Z,65.45
2018-07-16T02:50:41.152Z,65.95
2018-07-16T02:53:08.943Z,65.89
2018-07-16T02:55:36.607Z,66.00
2018-07-16T02:58:04.860Z,65.82
2018-07-16T03:00:32.513Z,65.63
2018-07-16T03:03:00.171Z,66.03
2018-07-16T03:05:27.882Z,65.31
2018-07-16T03:07:55.532Z,65.26
2018-07-16T03:10:23.271Z,64.94
2018-07-16T03:12:51.010Z,64.37
2018-07-16T03:15:18.728Z,64.32
2018-07-16T03:17:46.440Z,64.24
2018-07-16T03:20:14.148Z,64.35
2018-07-16T03:22:41.844Z,63.87
2018-07-16T03:25:09.548Z,63.35
2018-07-16T03:27:37.210Z,63.56
2018-07-16T03:30:04.880Z,63.77
2018-07-16T03:32:32.598Z,64.47
2018-07-16T03:35:00.313Z,64.27
2018-07-16T03:37:28.127Z,64.35
2018-07-16T03:39:55.911Z,64.42
2018-07-16T03:42:23.651Z,63.48
2018-07-16T03:44:51.410Z,63.57
2018-07-16T03:47:19.113Z,62.32
2018-07-16T03:49:46.734Z,61.93
2018-07-16T03:52:14.414Z,61.42
2018-07-16T03:54:42.061Z,61.08
2018-07-16T03:57:09.900Z,61.34
2018-07-16T03:59:37.630Z,60.92
2018-07-16T04:02:05.500Z,61.22
2018-07-16T04:04:33.240Z,60.69
2018-07-16T04:07:00.876Z,60.59
2018-07-16T04:09:29.720Z,60.57
2018-07-16T04:11:57.397Z,61.00
2018-07-16T04:14:25.143Z,60.75
2018-07-16T04:16:52.959Z,60.60
2018-07-16T04:19:20.624Z,60.31
2018-07-16T04:21:48.302Z,60.02
2018-07-16T04:24:15.999Z,60.11
2018-07-16T04:26:43.709Z,59.99
2018-07-16T04:29:11.466Z,60.40
2018-07-16T04:31:39.191Z,60.56
2018-07-16T04:34:07.022Z,60.27
2018-07-16T04:36:34.732Z,60.15
2018-07-16T04:39:04.119Z,59.66
2018-07-16T04:41:31.901Z,60.03
2018-07-16T04:43:59.671Z,59.27
2018-07-16T04:46:27.391Z,59.88
2018-07-16T04:48:55.076Z,58.70
2018-07-16T04:51:22.711Z,57.69
2018-07-16T04:53:50.330Z,56.35
2018-07-16T04:56:17.994Z,56.11
2018-07-16T04:58:45.690Z,56.01
2018-07-16T05:01:13.425Z,54.83
2018-07-16T05:03:41.091Z,55.00
2018-07-16T05:06:08.847Z,55.08
2018-07-16T05:08:36.585Z,53.84
2018-07-16T05:11:04.316Z,53.45
2018-07-16T05:13:32.004Z,52.89
2018-07-16T05:15:59.768Z,52.50
2018-07-16T05:18:27.615Z,52.29
2018-07-16T05:20:55.190Z,51.82
2018-07-16T05:23:22.921Z,51.95
2018-07-16T05:25:50.612Z,51.21
2018-07-16T05:28:18.384Z,49.84
2018-07-16T05:30:46.091Z,49.38
2018-07-16T05:33:13.750Z,49.24
2018-07-16T05:35:41.486Z,48.25
2018-07-16T05:38:09.142Z,48.20
2018-07-16T05:40:36.867Z,48.00
2018-07-16T05:43:05.149Z,47.48
2018-07-16T05:45:32.926Z,48.88
2018-07-16T05:48:00.597Z,50.18
2018-07-16T05:50:28.330Z,49.47
2018-07-16T05:52:56.026Z,48.83
2018-07-16T05:55:23.705Z,47.75
2018-07-16T05:57:51.420Z,47.43
2018-07-16T06:00:19.117Z,46.32
2018-07-16T06:02:46.752Z,46.84
2018-07-16T06:05:14.453Z,45.41
2018-07-16T06:07:42.134Z,44.41
2018-07-16T06:10:09.847Z,45.18
2018-07-16T06:12:37.525Z,44.11
2018-07-16T06:15:05.199Z,43.73
2018-07-16T06:17:32.872Z,43.89
2018-07-16T06:20:00.543Z,43.28
2018-07-16T06:22:28.235Z,43.47
2018-07-16T06:24:55.890Z,42.72
2018-07-16T06:27:23.534Z,45.78
2018-07-16T06:29:51.177Z,46.43
2018-07-16T06:32:18.888Z,45.72
2018-07-16T06:34:46.600Z,46.94
2018-07-16T06:37:14.326Z,47.55
2018-07-16T06:39:42.070Z,46.50
2018-07-16T06:42:09.646Z,46.67
2018-07-16T06:44:37.397Z,47.21
2018-07-16T06:47:05.222Z,45.18
2018-07-16T06:49:32.971Z,43.52
2018-07-16T06:52:00.589Z,41.36
2018-07-16T06:57:02.494Z,41.72
2018-07-16T06:59:30.190Z,40.57
2018-07-16T07:01:58.207Z,41.85
2018-07-16T07:04:26.050Z,41.13
2018-07-16T07:06:53.760Z,40.03
2018-07-16T07:09:26.573Z,39.40
2018-07-16T07:11:54.229Z,39.15
2018-07-16T07:14:21.935Z,37.87
2018-07-16T07:16:49.670Z,38.24
2018-07-16T07:19:17.390Z,37.49
2018-07-16T07:21:45.093Z,37.67
2018-07-16T07:24:12.719Z,37.11
2018-07-16T07:26:40.434Z,38.27
2018-07-16T07:29:08.249Z,37.41
2018-07-16T07:31:36.038Z,37.61
2018-07-16T07:34:03.889Z,37.72
2018-07-16T07:36:31.663Z,37.01
2018-07-16T07:38:59.340Z,36.93
2018-07-16T07:41:27.040Z,36.30
2018-07-16T07:43:54.753Z,36.85
2018-07-16T07:46:22.548Z,38.42
2018-07-16T07:48:50.202Z,38.27
2018-07-16T07:51:18.014Z,38.50
2018-07-16T07:53:45.864Z,37.26
2018-07-16T07:56:13.508Z,36.05
2018-07-16T07:58:41.142Z,34.92
2018-07-16T08:01:08.869Z,35.09
2018-07-16T08:03:36.557Z,35.17
2018-07-16T08:06:05.655Z,35.23
2018-07-16T08:08:34.508Z,34.91
2018-07-16T08:11:02.710Z,34.07
2018-07-16T08:13:33.184Z,34.47
2018-07-16T08:16:01.186Z,33.01
2018-07-16T08:18:29.215Z,33.51
2018-07-16T08:20:56.867Z,32.90
2018-07-16T08:23:24.648Z,32.16
2018-07-16T08:25:52.285Z,32.87
2018-07-16T08:28:20.106Z,32.45
2018-07-16T08:30:47.882Z,33.14
2018-07-16T08:33:15.591Z,31.51
2018-07-16T08:35:43.328Z,31.89
2018-07-16T08:38:11.054Z,31.41
2018-07-16T08:40:38.718Z,31.29
2018-07-16T08:43:06.381Z,30.88
2018-07-16T08:45:34.079Z,30.98
2018-07-16T08:48:01.847Z,34.59
2018-07-16T08:50:29.505Z,33.61
2018-07-16T08:52:57.169Z,33.85
2018-07-16T08:55:24.829Z,32.21
2018-07-16T08:57:52.869Z,32.91
2018-07-16T09:00:20.673Z,31.69
2018-07-16T09:02:48.503Z,30.96
2018-07-16T09:05:16.434Z,31.29
2018-07-16T09:07:44.295Z,28.74
2018-07-16T09:10:12.208Z,29.42
2018-07-16T09:12:39.979Z,30.79
2018-07-16T09:15:07.798Z,28.62
2018-07-16T09:17:35.644Z,29.62
2018-07-16T09:20:03.357Z,29.64
2018-07-16T09:22:31.053Z,30.84
2018-07-16T09:24:58.802Z,31.01
2018-07-16T09:27:26.462Z,29.63
2018-07-16T09:29:54.276Z,30.62
2018-07-16T09:32:21.913Z,29.68
2018-07-16T09:34:49.593Z,30.19
2018-07-16T09:37:17.261Z,29.76
2018-07-16T09:39:44.889Z,30.00
2018-07-16T09:42:12.554Z,30.60
2018-07-16T09:44:40.265Z,30.18
2018-07-16T09:47:07.931Z,30.23
2018-07-16T09:49:35.560Z,30.27
2018-07-16T09:52:03.291Z,29.41
2018-07-16T09:54:30.982Z,29.04
2018-07-16T09:56:58.605Z,28.81
2018-07-16T09:59:26.313Z,29.88
2018-07-16T10:02:30.346Z,30.65
2018-07-16T10:04:58.015Z,30.42
2018-07-16T10:07:25.737Z,29.34
2018-07-16T10:09:53.379Z,28.59
2018-07-16T10:12:21.021Z,28.18
2018-07-16T10:14:48.655Z,28.46
2018-07-16T10:17:16.326Z,28.36
2018-07-16T10:19:43.979Z,27.74
2018-07-16T10:22:11.719Z,27.92
2018-07-16T10:24:39.479Z,27.67
2018-07-16T10:27:07.168Z,26.13
2018-07-16T10:29:34.825Z,25.87
2018-07-16T10:32:02.580Z,26.48
2018-07-16T10:34:30.383Z,26.37
2018-07-16T10:36:58.113Z,28.15
2018-07-16T10:39:25.892Z,27.79
2018-07-16T10:41:53.561Z,26.09
2018-07-16T10:44:21.377Z,27.93
2018-07-16T10:46:49.094Z,27.16
2018-07-16T10:49:16.737Z,27.88
2018-07-16T10:51:44.335Z,28.65
2018-07-16T10:54:11.972Z,26.85
2018-07-16T10:56:39.679Z,28.49
2018-07-16T10:59:07.363Z,27.63
2018-07-16T11:01:35.042Z,27.53
2018-07-16T11:04:02.745Z,28.33
2018-07-16T11:06:30.404Z,27.69
2018-07-16T11:08:58.019Z,26.15
2018-07-16T11:11:25.621Z,27.28
2018-07-16T11:13:53.222Z,27.01
2018-07-16T11:16:20.994Z,28.05
2018-07-16T11:18:48.643Z,27.69
2018-07-16T11:21:16.353Z,27.03
2018-07-16T11:23:44.013Z,27.39
2018-07-16T11:28:46.107Z,26.19
2018-07-16T11:31:13.774Z,27.25
2018-07-16T11:33:41.382Z,26.54
2018-07-16T11:36:09.153Z,25.03
2018-07-16T11:38:36.814Z,25.27
2018-07-16T11:41:04.455Z,25.91
2018-07-16T11:43:32.118Z,25.64
2018-07-16T11:45:59.754Z,25.66
2018-07-16T11:48:27.505Z,27.25
2018-07-16T11:50:55.161Z,26.23
2018-07-16T11:53:22.769Z,24.99
2018-07-16T11:55:50.487Z,24.34
2018-07-16T11:58:18.189Z,24.27
2018-07-16T12:00:45.861Z,22.29
2018-07-16T12:03:13.523Z,22.60
2018-07-16T12:05:41.201Z,18.96
2018-07-16T12:08:08.836Z,18.23
2018-07-16T12:10:36.645Z,18.12
2018-07-16T12:13:04.452Z,17.73
2018-07-16T12:15:32.191Z,16.12
2018-07-16T12:17:59.882Z,14.00
2018-07-16T12:20:27.656Z,14.04
2018-07-16T12:22:55.318Z,12.62
2018-07-16T12:25:23.082Z,13.05
2018-07-16T12:27:50.726Z,11.31
2018-07-16T12:30:18.675Z,10.91
2018-07-16T12:32:46.327Z,11.06
2018-07-16T12:35:14.069Z,9.67
2018-07-16T12:37:41.682Z,8.78
2018-07-16T12:40:09.345Z,8.08
2018-07-16T12:42:37.000Z,8.36
2018-07-16T12:45:05.118Z,8.73
2018-07-16T12:47:33.177Z,7.95
2018-07-16T12:50:00.829Z,11.64
2018-07-16T12:52:28.472Z,11.57
2018-07-16T12:54:56.146Z,11.02
2018-07-16T12:57:24.253Z,9.04
2018-07-16T12:59:52.848Z,7.89
2018-07-16T13:02:20.562Z,8.66
2018-07-16T13:04:48.315Z,8.96
2018-07-16T13:07:15.981Z,9.50
2018-07-16T13:09:43.701Z,9.51
2018-07-16T13:12:11.355Z,11.09
2018-07-16T13:14:39.113Z,10.53
2018-07-16T13:17:06.899Z,8.31
2018-07-16T13:19:34.532Z,7.52
2018-07-16T13:22:02.268Z,6.49
2018-07-16T13:24:29.968Z,8.33
2018-07-16T13:26:57.675Z,8.24
2018-07-16T13:29:25.314Z,8.07
2018-07-16T13:31:53.014Z,6.51
2018-07-16T13:34:20.768Z,7.12
2018-07-16T13:36:48.624Z,6.51
2018-07-16T13:39:16.355Z,5.72
2018-07-16T13:41:44.201Z,5.43
2018-07-16T13:44:11.952Z,7.33
2018-07-16T13:46:40.190Z,6.31
2018-07-16T13:49:07.990Z,5.46
2018-07-16T13:51:35.830Z,4.97
2018-07-16T13:54:03.600Z,4.20
2018-07-16T13:56:31.387Z,5.72
2018-07-16T13:58:59.115Z,5.98
2018-07-16T14:01:26.835Z,5.23
2018-07-16T14:03:54.566Z,4.86
2018-07-16T14:06:22.223Z,4.87
2018-07-16T14:08:49.853Z,7.66
2018-07-16T14:11:17.861Z,10.00
2018-07-16T14:13:45.613Z,8.23
2018-07-16T14:16:13.411Z,6.56
2018-07-16T14:18:41.173Z,7.51
2018-07-16T14:21:08.950Z,6.95
2018-07-16T14:23:36.898Z,6.89
2018-07-16T14:26:04.845Z,7.49
2018-07-16T14:28:32.643Z,6.20
2018-07-16T14:31:06.047Z,6.43
2018-07-16T14:33:33.714Z,4.65
2018-07-16T14:36:01.544Z,4.87
2018-07-16T14:38:29.314Z,5.00
2018-07-16T14:40:56.978Z,4.94
2018-07-16T14:43:24.581Z,4.16
2018-07-16T14:45:52.177Z,4.73
2018-07-16T14:48:19.889Z,5.18
2018-07-16T14:50:47.535Z,6.46
2018-07-16T14:53:15.204Z,6.07
2018-07-16T14:55:43.018Z,7.26
2018-07-16T14:58:10.783Z,8.35
2018-07-16T15:00:38.541Z,8.47
2018-07-16T15:03:06.341Z,7.62
2018-07-16T15:05:34.080Z,6.85
2018-07-16T15:08:01.851Z,5.68
2018-07-16T15:10:29.511Z,5.88
2018-07-16T15:12:57.177Z,6.14
2018-07-16T15:15:24.886Z,7.00
2018-07-16T15:17:52.571Z,6.44
2018-07-16T15:20:20.363Z,7.43
2018-07-16T15:22:47.941Z,7.80
2018-07-16T15:25:15.691Z,7.76
2018-07-16T15:27:43.403Z,6.85
2018-07-16T15:30:12.042Z,7.78
2018-07-16T15:32:39.701Z,7.02
2018-07-16T15:35:07.415Z,7.53
2018-07-16T15:37:35.073Z,7.78
2018-07-16T15:40:03.005Z,8.09
2018-07-16T15:42:30.975Z,9.71
2018-07-16T15:44:58.736Z,8.99
2018-07-16T15:47:26.383Z,8.08
2018-07-16T15:49:54.078Z,6.99
2018-07-16T15:52:21.976Z,7.57
2018-07-16T15:54:49.586Z,8.24
2018-07-16T15:57:17.242Z,7.35
2018-07-16T15:59:44.877Z,6.53
2018-07-16T16:02:12.537Z,5.78
2018-07-16T16:04:40.289Z,6.28
2018-07-16T16:07:08.286Z,6.27
2018-07-16T16:09:38.099Z,5.33
2018-07-16T16:12:05.869Z,5.48
2018-07-16T16:14:33.825Z,5.29
2018-07-16T16:17:01.598Z,5.60
2018-07-16T16:19:29.279Z,4.67
2018-07-16T16:21:56.981Z,4.86
2018-07-16T16:24:24.696Z,4.88
2018-07-16T16:26:52.343Z,4.89
2018-07-16T16:29:20.065Z,6.62
2018-07-16T16:31:47.748Z,8.48
2018-07-16T16:34:15.422Z,7.24
2018-07-16T16:36:43.154Z,6.98
2018-07-16T16:39:10.890Z,5.98
2018-07-16T16:41:38.560Z,7.30
2018-07-16T16:44:06.269Z,10.63
2018-07-16T16:46:33.942Z,12.14
2018-07-16T16:49:01.701Z,10.35
2018-07-16T16:51:29.436Z,8.59
2018-07-16T16:53:57.082Z,8.97
2018-07-16T16:56:24.811Z,11.66
2018-07-16T16:58:52.499Z,13.10
2018-07-16T17:01:20.168Z,11.69
2018-07-16T17:03:47.967Z,9.62
2018-07-16T17:06:15.612Z,7.87
2018-07-16T17:08:43.331Z,7.20
2018-07-16T17:11:11.107Z,7.44
2018-07-16T17:13:38.841Z,7.01
2018-07-16T17:16:06.591Z,6.84
2018-07-16T17:18:34.398Z,6.74
2018-07-16T17:21:02.075Z,7.26
2018-07-16T17:23:29.834Z,7.11
2018-07-16T17:25:57.634Z,7.21
2018-07-16T17:28:32.361Z,8.88
2018-07-16T17:31:00.061Z,10.54
2018-07-16T17:33:27.779Z,10.36
2018-07-16T17:35:55.607Z,12.14
2018-07-16T17:38:23.441Z,11.70
2018-07-16T17:40:51.662Z,10.39
2018-07-16T17:43:19.531Z,9.92
2018-07-16T17:45:47.261Z,10.19
2018-07-16T17:48:15.002Z,9.48
2018-07-16T17:50:42.694Z,10.56
2018-07-16T17:53:10.383Z,10.02
2018-07-16T17:55:38.008Z,9.63
2018-07-16T17:58:05.762Z,10.41
2018-07-16T18:00:33.475Z,13.66
2018-07-16T18:03:01.228Z,12.65
2018-07-16T18:05:28.915Z,13.65
2018-07-16T18:07:57.636Z,12.03
2018-07-16T18:10:25.320Z,12.46
2018-07-16T18:12:53.752Z,12.59
2018-07-16T18:15:21.525Z,12.44
2018-07-16T18:17:49.245Z,13.59
2018-07-16T18:20:16.948Z,14.00
2018-07-16T18:22:44.673Z,14.86
2018-07-16T18:25:12.632Z,16.06
2018-07-16T18:27:40.300Z,18.44
2018-07-16T18:30:08.040Z,19.01
2018-07-16T18:32:36.059Z,21.51
2018-07-16T18:35:03.870Z,22.18
2018-07-16T18:37:31.690Z,22.49
2018-07-16T18:39:59.280Z,24.29
2018-07-16T18:42:27.095Z,24.95
2018-07-16T18:44:54.801Z,23.97
2018-07-16T18:47:22.531Z,25.39
2018-07-16T18:49:50.223Z,24.74
2018-07-16T18:52:17.861Z,26.09
2018-07-16T18:54:45.777Z,25.67
2018-07-16T18:57:13.526Z,26.05
2018-07-16T18:59:41.242Z,26.40
2018-07-16T19:02:09.379Z,27.27
2018-07-16T19:04:37.054Z,27.65
2018-07-16T19:07:05.276Z,28.02
2018-07-16T19:09:33.647Z,28.18
2018-07-16T19:12:01.533Z,28.99
2018-07-16T19:14:29.509Z,30.66
2018-07-16T19:16:57.183Z,31.31
2018-07-16T19:19:24.755Z,30.98
2018-07-16T19:21:52.488Z,30.40
2018-07-16T19:24:20.249Z,31.97
2018-07-16T19:26:48.214Z,31.51
2018-07-16T19:29:15.875Z,34.43
2018-07-16T19:31:43.896Z,34.18
2018-07-16T19:34:11.671Z,33.43
2018-07-16T19:36:39.399Z,33.38
2018-07-16T19:39:08.901Z,34.42
2018-07-16T19:41:36.569Z,34.32
2018-07-16T19:44:04.339Z,35.28
2018-07-16T19:46:32.176Z,35.04
2018-07-16T19:48:59.860Z,36.93
2018-07-16T19:51:28.215Z,36.41
2018-07-16T19:53:56.183Z,37.49
2018-07-16T19:56:24.013Z,38.08
2018-07-16T19:58:51.824Z,37.67
2018-07-16T20:01:19.680Z,37.54
2018-07-16T20:03:47.488Z,38.74
2018-07-16T20:06:15.538Z,38.87
2018-07-16T20:08:43.391Z,39.35
2018-07-16T20:11:11.188Z,39.16
2018-07-16T20:13:39.287Z,39.28
2018-07-16T20:16:07.404Z,39.23
2018-07-16T20:18:35.712Z,39.28
2018-07-16T20:21:03.432Z,38.90
2018-07-16T20:23:31.304Z,38.93
2018-07-16T20:25:59.476Z,38.96
2018-07-16T20:28:27.246Z,38.64
2018-07-16T20:30:55.177Z,38.88
2018-07-16T20:33:23.138Z,39.62
2018-07-16T20:35:50.943Z,40.17
2018-07-16T20:38:18.615Z,40.46
2018-07-16T20:40:46.768Z,40.74
2018-07-16T20:43:14.455Z,40.80
2018-07-16T20:45:42.181Z,41.14
2018-07-16T20:48:09.907Z,41.73
2018-07-16T20:50:37.703Z,41.44
2018-07-16T20:53:05.337Z,41.83
2018-07-16T20:55:32.979Z,42.36
2018-07-16T20:58:01.039Z,42.57
2018-07-16T21:00:28.769Z,43.09
2018-07-16T21:02:56.486Z,43.25
2018-07-16T21:05:24.289Z,43.02
2018-07-16T21:07:52.417Z,43.65
2018-07-16T21:10:19.992Z,43.14
2018-07-16T21:12:47.781Z,43.14
2018-07-16T21:15:15.495Z,43.09
2018-07-16T21:17:43.216Z,43.65
2018-07-16T21:20:11.937Z,44.12
2018-07-16T21:22:40.018Z,43.98
2018-07-16T21:25:09.004Z,43.92
2018-07-16T21:27:36.700Z,44.47
2018-07-16T21:30:04.804Z,44.82
2018-07-16T21:32:32.509Z,45.62
2018-07-16T21:35:00.302Z,46.01
2018-07-16T21:37:27.991Z,45.78
2018-07-16T21:39:55.672Z,45.73
2018-07-16T21:42:23.490Z,46.11
2018-07-16T21:44:51.110Z,45.91
2018-07-16T21:47:18.774Z,45.94
2018-07-16T21:49:46.469Z,45.70
2018-07-16T21:52:14.205Z,46.59
2018-07-16T21:54:41.859Z,46.21
2018-07-16T21:57:09.937Z,46.52
2018-07-16T21:59:37.632Z,46.85
2018-07-16T22:02:05.355Z,46.73
2018-07-16T22:04:33.039Z,46.78
2018-07-16T22:07:00.719Z,47.01
2018-07-16T22:09:28.315Z,47.58
2018-07-16T22:11:55.951Z,47.57
2018-07-16T22:14:23.713Z,48.21
2018-07-16T22:16:51.365Z,48.12
2018-07-16T22:19:19.011Z,47.89
2018-07-16T22:21:46.672Z,47.92
2018-07-16T22:24:14.366Z,47.96
2018-07-16T22:26:42.030Z,48.06
2018-07-16T22:29:09.690Z,48.14
2018-07-16T22:31:37.290Z,47.98
2018-07-16T22:34:05.331Z,47.85
2018-07-16T22:36:32.941Z,47.88
2018-07-16T22:39:00.605Z,48.50
2018-07-16T22:41:28.255Z,46.08
2018-07-16T22:43:55.887Z,46.84
2018-07-16T22:46:23.538Z,46.69
2018-07-16T22:48:51.167Z,47.35
2018-07-16T22:51:18.822Z,47.62
2018-07-16T22:53:46.470Z,47.77
2018-07-16T22:56:14.075Z,48.32
2018-07-16T22:58:41.786Z,48.43
2018-07-16T23:01:09.403Z,48.82
2018-07-16T23:03:37.027Z,49.91
2018-07-16T23:06:04.641Z,49.91
2018-07-16T23:08:32.240Z,49.71
2018-07-16T23:10:59.874Z,50.05
2018-07-16T23:13:27.522Z,50.24
2018-07-16T23:15:55.142Z,50.09
2018-07-16T23:18:22.734Z,50.39
2018-07-16T23:20:50.312Z,50.63
2018-07-16T23:23:17.956Z,50.76
2018-07-16T23:25:45.554Z,50.73
2018-07-16T23:28:13.222Z,51.30
2018-07-16T23:30:40.861Z,51.76
2018-07-16T23:33:08.531Z,51.67
2018-07-16T23:35:36.157Z,51.44
2018-07-16T23:38:03.847Z,51.45
2018-07-16T23:40:31.496Z,51.74
2018-07-16T23:42:59.163Z,51.75
2018-07-16T23:45:26.861Z,52.42
2018-07-16T23:47:54.481Z,52.13
2018-07-16T23:50:22.174Z,52.97
2018-07-16T23:52:49.773Z,53.03
2018-07-16T23:55:17.505Z,53.47
2018-07-16T23:57:45.113Z,53.70
